Tidehead, Canada
Current Conditions -  °F | °C
As of 4:00 PM on Wednesday 26 Nov 2014 (Local Time) from CZBF Reporting Station
Overcast Overcast  
Wind Chill: 36°   Ceiling: 8000
Heat Index: 36°   Visibility: 15mi
Dew Point: 19°   Wind: 3mph
Humidity: 52%   Direction: 360°N
Pressure: 30.19"   Gusts: NA
Location:  47.98°N, 66.79°W
Report Text: CZBF 262000Z 36003KT 310V030 15SM FEW030 OVC080 02/M07 A3019 RMK SC1AS8 SC TR SLP226
Loading
Personal Weather Stations






























Interactive Weather Map New forecast layout! Learn more

10-Day Weather Forecast

Advertisements
Track Severe Weather on mobile